Terminal Aerodrome Forecast
Issued by NWS St Louis, MO

Home | Current Version | Previous Version | Text Only | Print | Product List | Glossary On
Versions: 1 2 3 4 5 6 7 8 9 10 11 12 13 14 15 16 17 18 19 20
434
FTUS43 KLSX 260520
TAFSTL
TAF
KSTL 260520Z 2606/2712 17010KT P6SM BKN130
     FM261000 19008KT P6SM VCSH BKN045
     FM261400 19010KT P6SM OVC025
     FM261900 23010KT 5SM -SHRA VCTS OVC020CB
     FM270000 28009KT P6SM OVC020
     FM270400 33008KT P6SM OVC020=

USA.gov is the U.S. government's official web portal to all federal, state and local government web resources and services.